KEKO/EKO METAR and TAF weather

Enter ICAO airport designator
Station Type Date Time Source
KEKO METAR 2021/05/12 01:56 UTC NOAA

KEKO 120156Z AUTO 24008KT 10SM CLR 18/M11 A3009 RMK AO2 SLP170 T01831106


Station Type Date Time Source
KEKO Decoded METAR 2021/05/12 01:56 UTC NOAA

ELKO REGIONAL AIRPORT, NV, United States (KEKO) 40-50N 115-47W 1547M
May 11, 2021 - 09:56 PM EDT / 2021.05.12 0156 UTC
Wind: from the WSW (240 degrees) at 9 MPH (8 KT):0
Visibility: 10 mile(s):0
Sky conditions: clear
Temperature: 64.9 F (18.3 C)
Dew Point: 12.9 F (-10.6 C)
Relative Humidity: 12%
Pressure (altimeter): 30.09 in. Hg (1018 hPa)
ob: KEKO 120156Z AUTO 24008KT 10SM CLR 18/M11 A3009 RMK AO2 SLP170 T01831106
cycle: 2

Station Type Date Time Source
KEKO TAF 2021/05/11 19:52 UTC NOAA

TAF KEKO 111850Z 1119/1218 VRB05KT P6SM FEW200

Example: see airport list